createdAt,value
2018-12-06T00:01:14.664Z,8.90
2018-12-06T00:03:42.669Z,8.90
2018-12-06T00:06:10.229Z,8.90
2018-12-06T00:08:37.786Z,8.90
2018-12-06T00:11:05.346Z,9.00
2018-12-06T00:13:32.907Z,8.90
2018-12-06T00:16:00.462Z,8.90
2018-12-06T00:18:28.029Z,8.80
2018-12-06T00:20:55.577Z,8.80
2018-12-06T00:23:23.171Z,8.80
2018-12-06T00:25:50.728Z,8.70
2018-12-06T00:28:18.408Z,8.70
2018-12-06T00:30:45.998Z,8.70
2018-12-06T00:33:13.555Z,8.60
2018-12-06T00:35:41.105Z,8.60
2018-12-06T00:38:08.667Z,8.60
2018-12-06T00:40:36.217Z,8.60
2018-12-06T00:43:03.777Z,8.60
2018-12-06T00:45:31.337Z,8.60
2018-12-06T00:47:58.971Z,8.60
2018-12-06T00:50:26.515Z,8.70
2018-12-06T00:52:54.075Z,8.80
2018-12-06T00:55:21.657Z,8.80
2018-12-06T00:57:49.218Z,8.90
2018-12-06T01:00:16.927Z,9.00
2018-12-06T01:02:44.492Z,9.10
2018-12-06T01:05:12.128Z,9.10
2018-12-06T01:07:39.698Z,9.20
2018-12-06T01:10:07.341Z,9.20
2018-12-06T01:12:34.913Z,9.20
2018-12-06T01:15:02.621Z,9.30
2018-12-06T01:17:30.189Z,9.30
2018-12-06T01:19:57.749Z,9.30
2018-12-06T01:22:25.316Z,9.30
2018-12-06T01:24:52.884Z,9.40
2018-12-06T01:27:20.663Z,9.40
2018-12-06T01:29:48.245Z,9.40
2018-12-06T01:32:15.804Z,9.40
2018-12-06T01:37:17.213Z,9.50
2018-12-06T01:39:44.776Z,9.50
2018-12-06T01:42:12.349Z,9.50
2018-12-06T01:44:39.900Z,9.50
2018-12-06T01:47:07.529Z,9.40
2018-12-06T01:49:35.083Z,9.40
2018-12-06T01:52:02.644Z,9.50
2018-12-06T01:54:30.199Z,9.50
2018-12-06T01:56:57.757Z,9.50
2018-12-06T01:59:25.395Z,9.60
2018-12-06T02:01:52.956Z,9.60
2018-12-06T02:04:20.502Z,9.60
2018-12-06T02:06:48.054Z,9.70
2018-12-06T02:09:15.612Z,9.70
2018-12-06T02:11:43.175Z,9.70
2018-12-06T02:14:10.815Z,9.70
2018-12-06T02:16:38.396Z,9.70
2018-12-06T02:19:05.955Z,9.70
2018-12-06T02:21:33.504Z,9.70
2018-12-06T02:24:01.057Z,9.70
2018-12-06T02:26:28.605Z,9.70
2018-12-06T02:28:56.167Z,9.70
2018-12-06T02:31:23.718Z,9.60
2018-12-06T02:33:51.274Z,9.60
2018-12-06T02:36:18.914Z,9.70
2018-12-06T02:38:46.590Z,9.70
2018-12-06T02:41:14.144Z,9.70
2018-12-06T02:43:41.829Z,9.70
2018-12-06T02:46:09.390Z,9.70
2018-12-06T02:48:36.959Z,9.70
2018-12-06T02:51:04.518Z,9.70
2018-12-06T02:53:32.080Z,9.70
2018-12-06T02:55:59.637Z,9.80
2018-12-06T02:58:27.221Z,9.70
2018-12-06T03:00:54.997Z,9.70
2018-12-06T03:03:22.841Z,9.80
2018-12-06T03:05:50.402Z,9.80
2018-12-06T03:08:17.975Z,9.80
2018-12-06T03:10:45.525Z,9.80
2018-12-06T03:13:13.092Z,9.80
2018-12-06T03:15:40.655Z,9.80
2018-12-06T03:18:08.205Z,9.80
2018-12-06T03:20:35.776Z,9.80
2018-12-06T03:23:03.323Z,9.80
2018-12-06T03:25:30.873Z,9.80
2018-12-06T03:27:58.423Z,9.80
2018-12-06T03:30:25.984Z,9.80
2018-12-06T03:32:53.540Z,9.80
2018-12-06T03:35:21.097Z,9.80
2018-12-06T03:37:48.696Z,9.80
2018-12-06T03:40:16.249Z,9.80
2018-12-06T03:42:43.798Z,9.80
2018-12-06T03:45:11.451Z,9.80
2018-12-06T03:47:39.011Z,9.80
2018-12-06T03:50:06.650Z,9.80
2018-12-06T03:52:34.197Z,9.80
2018-12-06T03:55:01.772Z,9.80
2018-12-06T03:57:29.428Z,9.80
2018-12-06T03:59:56.990Z,9.80
2018-12-06T04:02:24.541Z,9.80
2018-12-06T04:04:52.101Z,9.80
2018-12-06T04:07:19.658Z,9.80
2018-12-06T04:09:47.210Z,9.80
2018-12-06T04:12:14.769Z,9.80
2018-12-06T04:14:42.347Z,9.80
2018-12-06T04:17:09.896Z,9.80
2018-12-06T04:19:37.452Z,9.80
2018-12-06T04:22:05.004Z,9.80
2018-12-06T04:24:32.565Z,9.80
2018-12-06T04:27:00.125Z,9.80
2018-12-06T04:29:27.694Z,9.80
2018-12-06T04:31:55.266Z,9.90
2018-12-06T04:34:22.827Z,9.90
2018-12-06T04:36:50.387Z,9.90
2018-12-06T04:39:17.934Z,9.90
2018-12-06T04:41:45.501Z,9.90
2018-12-06T04:44:13.069Z,9.90
2018-12-06T04:46:40.635Z,10.00
2018-12-06T04:49:08.274Z,10.00
2018-12-06T04:51:35.831Z,10.00
2018-12-06T04:54:03.391Z,10.00
2018-12-06T04:56:30.967Z,10.00
2018-12-06T04:58:58.530Z,10.10
2018-12-06T05:01:26.090Z,10.10
2018-12-06T05:03:54.138Z,10.10
2018-12-06T05:06:21.771Z,10.10
2018-12-06T05:08:49.347Z,10.10
2018-12-06T05:11:16.913Z,10.10
2018-12-06T05:13:44.468Z,10.20
2018-12-06T05:16:12.016Z,10.20
2018-12-06T05:18:39.574Z,10.20
2018-12-06T05:21:07.127Z,10.20
2018-12-06T05:23:34.686Z,10.20
2018-12-06T05:26:02.331Z,10.20
2018-12-06T05:28:29.889Z,10.20
2018-12-06T05:30:57.442Z,10.30
2018-12-06T05:33:25.002Z,10.30
2018-12-06T05:35:52.566Z,10.40
2018-12-06T05:38:20.162Z,10.40
2018-12-06T05:40:47.722Z,10.50
2018-12-06T05:43:15.298Z,10.50
2018-12-06T05:45:44.856Z,10.50
2018-12-06T05:48:12.429Z,10.60
2018-12-06T05:50:39.989Z,10.60
2018-12-06T05:53:07.550Z,10.70
2018-12-06T05:55:35.108Z,10.70
2018-12-06T05:58:02.666Z,10.80
2018-12-06T06:00:30.224Z,10.80
2018-12-06T06:02:57.783Z,10.80
2018-12-06T06:05:25.336Z,10.80
2018-12-06T06:07:52.901Z,10.80
2018-12-06T06:10:20.466Z,10.90
2018-12-06T06:12:48.035Z,10.90
2018-12-06T06:15:15.599Z,10.90
2018-12-06T06:17:43.162Z,11.00
2018-12-06T06:20:10.879Z,11.00
2018-12-06T06:22:38.477Z,11.00
2018-12-06T06:25:06.040Z,11.00
2018-12-06T06:27:33.600Z,11.00
2018-12-06T06:30:01.160Z,11.10
2018-12-06T06:32:28.724Z,11.10
2018-12-06T06:34:56.290Z,11.10
2018-12-06T06:37:23.858Z,11.20
2018-12-06T06:39:51.429Z,11.20
2018-12-06T06:42:18.995Z,11.20
2018-12-06T06:44:46.641Z,11.20
2018-12-06T06:47:14.189Z,11.20
2018-12-06T06:49:41.755Z,11.20
2018-12-06T06:52:09.334Z,11.20
2018-12-06T06:54:36.889Z,11.20
2018-12-06T06:57:04.535Z,11.30
2018-12-06T06:59:32.097Z,11.30
2018-12-06T07:01:59.664Z,11.30
2018-12-06T07:04:27.222Z,11.30
2018-12-06T07:06:54.905Z,11.30
2018-12-06T07:09:22.468Z,11.30
2018-12-06T07:11:50.046Z,11.40
2018-12-06T07:14:17.618Z,11.30
2018-12-06T07:16:45.179Z,11.30
2018-12-06T07:19:12.753Z,11.30
2018-12-06T07:21:40.310Z,11.30
2018-12-06T07:24:07.877Z,11.30
2018-12-06T07:26:35.513Z,11.30
2018-12-06T07:29:03.146Z,11.20
2018-12-06T07:31:30.709Z,11.20
2018-12-06T07:33:58.269Z,11.30
2018-12-06T07:36:25.831Z,11.20
2018-12-06T07:38:53.393Z,11.20
2018-12-06T07:41:20.946Z,11.20
2018-12-06T07:43:48.503Z,11.20
2018-12-06T07:46:16.062Z,11.20
2018-12-06T07:48:43.624Z,11.20
2018-12-06T07:51:11.186Z,11.20
2018-12-06T07:53:38.738Z,11.20
2018-12-06T07:56:06.297Z,11.20
2018-12-06T07:58:33.858Z,11.20
2018-12-06T08:01:01.415Z,11.20
2018-12-06T08:03:28.983Z,11.30
2018-12-06T08:05:56.542Z,11.30
2018-12-06T08:08:24.183Z,11.30
2018-12-06T08:10:51.744Z,11.30
2018-12-06T08:13:19.301Z,11.30
2018-12-06T08:15:46.872Z,11.30
2018-12-06T08:18:14.436Z,11.30
2018-12-06T08:20:41.996Z,11.30
2018-12-06T08:23:09.578Z,11.20
2018-12-06T08:25:37.144Z,11.20
2018-12-06T08:28:04.698Z,11.10
2018-12-06T08:30:32.254Z,11.10
2018-12-06T08:32:59.812Z,11.00
2018-12-06T08:35:27.371Z,11.10
2018-12-06T08:37:54.932Z,11.00
2018-12-06T08:40:22.518Z,11.00
2018-12-06T08:42:50.089Z,11.10
2018-12-06T08:45:17.717Z,11.10
2018-12-06T08:47:45.268Z,11.20
2018-12-06T08:50:12.983Z,11.30
2018-12-06T08:52:40.546Z,11.30
2018-12-06T08:55:08.104Z,11.40
2018-12-06T08:57:35.651Z,11.40
2018-12-06T09:00:03.757Z,11.50
2018-12-06T09:02:31.321Z,11.60
2018-12-06T09:04:58.876Z,11.70
2018-12-06T09:07:26.580Z,11.90
2018-12-06T09:09:54.139Z,12.00
2018-12-06T09:12:21.708Z,12.20
2018-12-06T09:14:49.265Z,12.30
2018-12-06T09:17:16.829Z,12.30
2018-12-06T09:19:44.387Z,12.40
2018-12-06T09:22:11.941Z,12.50
2018-12-06T09:24:39.506Z,12.50
2018-12-06T09:27:07.166Z,12.60
2018-12-06T09:29:35.048Z,12.60
2018-12-06T09:32:02.606Z,12.70
2018-12-06T09:34:30.172Z,12.70
2018-12-06T09:36:57.848Z,12.90
2018-12-06T09:39:25.583Z,13.00
2018-12-06T09:41:53.133Z,13.10
2018-12-06T09:44:20.695Z,13.20
2018-12-06T09:46:48.248Z,13.30
2018-12-06T09:49:15.803Z,13.40
2018-12-06T09:51:43.435Z,13.50
2018-12-06T09:54:10.995Z,13.60
2018-12-06T09:56:38.592Z,13.70
2018-12-06T09:59:06.220Z,13.70
2018-12-06T10:01:33.768Z,13.70
2018-12-06T10:04:01.370Z,13.80
2018-12-06T10:06:28.926Z,13.80
2018-12-06T10:08:56.487Z,13.80
2018-12-06T10:11:24.042Z,13.80
2018-12-06T10:13:51.591Z,13.70
2018-12-06T10:16:19.211Z,13.70
2018-12-06T10:18:46.766Z,13.70
2018-12-06T10:21:14.338Z,13.60
2018-12-06T10:23:41.893Z,13.60
2018-12-06T10:26:09.449Z,13.60
2018-12-06T10:28:37.017Z,13.60
2018-12-06T10:31:04.625Z,13.50
2018-12-06T10:33:32.190Z,13.50
2018-12-06T10:35:59.850Z,13.50
2018-12-06T10:38:27.404Z,13.40
2018-12-06T10:40:55.050Z,13.50
2018-12-06T10:43:22.714Z,13.50
2018-12-06T10:45:50.342Z,13.50
2018-12-06T10:48:17.905Z,13.50
2018-12-06T10:50:45.457Z,13.40
2018-12-06T10:53:13.019Z,13.40
2018-12-06T10:55:40.571Z,13.40
2018-12-06T10:58:08.127Z,13.40
2018-12-06T11:00:41.387Z,13.50
2018-12-06T11:03:10.979Z,13.40
2018-12-06T11:05:38.556Z,13.40
2018-12-06T11:08:06.120Z,13.40
2018-12-06T11:10:33.790Z,13.50
2018-12-06T11:13:01.365Z,13.50
2018-12-06T11:15:28.951Z,13.50
2018-12-06T11:18:32.893Z,13.60
2018-12-06T11:21:00.450Z,13.70
2018-12-06T11:23:28.001Z,13.70
2018-12-06T11:25:55.555Z,13.70
2018-12-06T11:28:23.123Z,13.70
2018-12-06T11:30:50.941Z,13.80
2018-12-06T11:33:18.498Z,13.80
2018-12-06T11:35:46.060Z,13.90
2018-12-06T11:38:13.618Z,14.00
2018-12-06T11:40:41.177Z,14.10
2018-12-06T11:43:08.726Z,14.10
2018-12-06T11:45:36.279Z,14.20
2018-12-06T11:48:03.908Z,14.30
2018-12-06T11:50:31.466Z,14.40
2018-12-06T11:52:59.017Z,14.60
2018-12-06T11:55:26.953Z,14.70
2018-12-06T11:57:54.748Z,14.80
2018-12-06T12:00:22.303Z,14.90
2018-12-06T12:02:49.862Z,14.90
2018-12-06T12:05:17.413Z,15.00
2018-12-06T12:07:44.967Z,15.00
2018-12-06T12:10:12.682Z,15.00
2018-12-06T12:12:40.240Z,15.10
2018-12-06T12:15:07.959Z,15.10
2018-12-06T12:17:35.511Z,15.20
2018-12-06T12:20:05.541Z,15.30
2018-12-06T12:22:33.199Z,15.30
2018-12-06T12:25:00.764Z,15.30
2018-12-06T12:27:28.330Z,15.40
2018-12-06T12:29:55.886Z,15.40
2018-12-06T12:32:23.456Z,15.40
2018-12-06T12:34:51.011Z,15.50
2018-12-06T12:37:18.572Z,15.50
2018-12-06T12:39:46.135Z,15.60
2018-12-06T12:42:13.684Z,16.00
2018-12-06T12:44:41.236Z,16.60
2018-12-06T12:47:08.782Z,17.30
2018-12-06T12:49:36.337Z,17.90
2018-12-06T12:52:03.903Z,18.60
2018-12-06T12:54:31.469Z,19.00
2018-12-06T12:56:59.034Z,19.40
2018-12-06T12:59:26.583Z,19.60
2018-12-06T13:01:54.134Z,19.60
2018-12-06T13:04:21.678Z,19.70
2018-12-06T13:06:49.239Z,19.80
2018-12-06T13:09:16.797Z,19.70
2018-12-06T13:11:44.682Z,19.80
2018-12-06T13:14:12.236Z,19.80
2018-12-06T13:16:39.782Z,19.40
2018-12-06T13:19:07.342Z,18.80
2018-12-06T13:21:34.895Z,18.10
2018-12-06T13:24:02.461Z,17.50
2018-12-06T13:26:30.097Z,17.10
2018-12-06T13:28:57.654Z,16.70
2018-12-06T13:31:25.242Z,16.40
2018-12-06T13:33:52.798Z,16.20
2018-12-06T13:36:20.367Z,15.90
2018-12-06T13:38:47.917Z,15.80
2018-12-06T13:41:15.558Z,15.50
2018-12-06T13:43:43.206Z,15.50
2018-12-06T13:46:11.032Z,15.30
2018-12-06T13:48:43.493Z,15.30
2018-12-06T13:51:11.078Z,15.20
2018-12-06T13:53:38.631Z,15.20
2018-12-06T13:56:06.175Z,15.10
2018-12-06T14:01:07.976Z,15.00
2018-12-06T14:06:03.050Z,15.00
2018-12-06T14:08:32.280Z,14.90
2018-12-06T14:11:01.447Z,15.00
2018-12-06T14:13:30.924Z,15.00
2018-12-06T14:16:00.097Z,15.10
2018-12-06T14:18:29.309Z,15.20
2018-12-06T14:20:59.603Z,15.30
2018-12-06T14:23:30.025Z,15.40
2018-12-06T14:25:59.275Z,15.40
2018-12-06T14:28:28.472Z,15.40
2018-12-06T14:30:57.674Z,15.20
2018-12-06T14:33:27.082Z,15.20
2018-12-06T14:35:56.275Z,15.00
2018-12-06T14:38:25.482Z,15.00
2018-12-06T14:40:54.658Z,14.90
2018-12-06T14:43:24.084Z,14.90
2018-12-06T14:45:53.636Z,14.90
2018-12-06T14:48:23.230Z,15.00
2018-12-06T14:50:53.169Z,15.00
2018-12-06T14:53:22.336Z,15.00
2018-12-06T14:55:51.661Z,14.90
2018-12-06T14:58:20.969Z,14.80
2018-12-06T15:00:50.198Z,14.80
2018-12-06T15:03:19.461Z,14.80
2018-12-06T15:05:48.633Z,14.70
2018-12-06T15:08:17.904Z,14.60
2018-12-06T15:10:47.098Z,14.60
2018-12-06T15:13:16.380Z,14.60
2018-12-06T15:18:23.351Z,14.50
2018-12-06T15:20:52.568Z,14.50
2018-12-06T15:23:22.068Z,14.40
2018-12-06T15:25:51.322Z,14.40
2018-12-06T15:28:21.505Z,14.40
2018-12-06T15:30:50.706Z,14.30
2018-12-06T15:33:19.876Z,14.30
2018-12-06T15:35:49.086Z,14.20
2018-12-06T15:38:18.279Z,14.20
2018-12-06T15:40:47.476Z,14.10
2018-12-06T15:43:16.666Z,14.00
2018-12-06T15:45:45.924Z,13.90
2018-12-06T15:48:15.132Z,13.80
2018-12-06T15:50:44.418Z,13.70
2018-12-06T15:53:13.805Z,13.70
2018-12-06T15:55:43.043Z,13.70
2018-12-06T15:58:12.624Z,13.60
2018-12-06T16:00:41.861Z,13.60
2018-12-06T16:03:11.379Z,13.50
2018-12-06T16:05:40.593Z,13.50
2018-12-06T16:08:10.264Z,13.40
2018-12-06T16:10:39.490Z,13.40
2018-12-06T16:13:08.724Z,13.30
2018-12-06T16:15:37.907Z,13.30
2018-12-06T16:18:07.182Z,13.30
2018-12-06T16:20:36.376Z,13.20
2018-12-06T16:23:05.742Z,13.20
2018-12-06T16:25:34.893Z,13.20
2018-12-06T16:28:04.339Z,13.30
2018-12-06T16:30:33.552Z,13.30
2018-12-06T16:33:02.764Z,13.40
2018-12-06T16:35:33.251Z,13.50
2018-12-06T16:38:02.421Z,13.50
2018-12-06T16:40:31.692Z,13.50
2018-12-06T16:43:00.940Z,13.60
2018-12-06T16:45:30.211Z,13.60
2018-12-06T16:47:59.373Z,13.60
2018-12-06T16:50:28.685Z,13.70
2018-12-06T16:52:57.854Z,13.70
2018-12-06T16:55:27.123Z,13.70
2018-12-06T16:57:56.614Z,13.70
2018-12-06T17:00:25.916Z,13.70
2018-12-06T17:02:55.166Z,13.70
2018-12-06T17:05:24.364Z,13.70
2018-12-06T17:08:00.557Z,13.70
2018-12-06T17:10:29.774Z,13.70
2018-12-06T17:12:59.026Z,13.70
2018-12-06T17:15:28.250Z,13.70
2018-12-06T17:17:57.507Z,13.70
2018-12-06T17:20:26.997Z,13.70
2018-12-06T17:22:56.526Z,13.70
2018-12-06T17:25:25.688Z,13.80
2018-12-06T17:27:56.693Z,13.70
2018-12-06T17:30:26.248Z,13.80
2018-12-06T17:32:55.535Z,13.80
2018-12-06T17:35:24.969Z,13.80
2018-12-06T17:37:55.237Z,13.80
2018-12-06T17:40:25.115Z,13.80
2018-12-06T17:42:54.733Z,13.80
2018-12-06T17:45:25.001Z,13.80
2018-12-06T17:47:54.245Z,13.80
2018-12-06T17:50:24.555Z,13.80
2018-12-06T17:52:53.951Z,13.80
2018-12-06T17:55:23.360Z,13.80
2018-12-06T17:57:52.532Z,13.80
2018-12-06T18:00:21.894Z,13.80
2018-12-06T18:02:51.182Z,13.80
2018-12-06T18:05:20.670Z,13.80
2018-12-06T18:07:50.957Z,13.80
2018-12-06T18:10:20.651Z,13.80
2018-12-06T18:12:50.657Z,13.70
2018-12-06T18:15:20.333Z,13.70
2018-12-06T18:17:49.592Z,13.70
2018-12-06T18:20:18.888Z,13.60
2018-12-06T18:22:48.115Z,13.60
2018-12-06T18:25:18.874Z,13.60
2018-12-06T18:27:48.066Z,13.60
2018-12-06T18:30:17.383Z,13.60
2018-12-06T18:32:46.613Z,13.50
2018-12-06T18:35:15.839Z,13.50
2018-12-06T18:37:45.093Z,13.50
2018-12-06T18:40:14.375Z,13.50
2018-12-06T18:42:43.654Z,13.40
2018-12-06T18:45:13.238Z,13.50
2018-12-06T18:47:42.566Z,13.50
2018-12-06T18:50:11.835Z,13.50
2018-12-06T18:52:41.100Z,13.50
2018-12-06T18:55:10.714Z,13.50
2018-12-06T18:57:40.008Z,13.50
2018-12-06T19:00:11.197Z,13.60
2018-12-06T19:02:40.585Z,13.60
2018-12-06T19:05:10.669Z,13.60
2018-12-06T19:07:39.918Z,13.60
2018-12-06T19:10:09.368Z,13.60
2018-12-06T19:12:38.623Z,13.60
2018-12-06T19:15:08.149Z,13.70
2018-12-06T19:17:37.383Z,13.70
2018-12-06T19:20:06.938Z,13.70
2018-12-06T19:22:36.238Z,13.70
2018-12-06T19:25:05.923Z,13.70
2018-12-06T19:27:35.250Z,13.70
2018-12-06T19:30:06.853Z,13.70
2018-12-06T19:32:36.100Z,13.70
2018-12-06T19:35:06.596Z,13.70
2018-12-06T19:37:35.891Z,13.70
2018-12-06T19:40:06.457Z,13.70
2018-12-06T19:42:38.874Z,13.70
2018-12-06T19:45:07.638Z,13.70
2018-12-06T19:47:36.961Z,13.60
2018-12-06T19:50:07.583Z,13.60
2018-12-06T19:52:36.846Z,13.70
2018-12-06T19:55:06.638Z,13.60
2018-12-06T19:57:35.883Z,13.60
2018-12-06T20:00:05.684Z,13.50
2018-12-06T20:02:34.959Z,13.50
2018-12-06T20:05:04.677Z,13.50
2018-12-06T20:07:33.941Z,13.50
2018-12-06T20:10:03.315Z,13.50
2018-12-06T20:12:33.935Z,13.50
2018-12-06T20:15:03.532Z,13.50
2018-12-06T20:17:32.720Z,13.50
2018-12-06T20:20:02.837Z,13.60
2018-12-06T20:22:32.129Z,13.60
2018-12-06T20:25:01.854Z,13.60
2018-12-06T20:27:32.561Z,13.60
2018-12-06T20:30:01.745Z,13.60
2018-12-06T20:32:31.207Z,13.60
2018-12-06T20:35:00.411Z,13.60
2018-12-06T20:37:29.681Z,13.70
2018-12-06T20:39:58.850Z,13.60
2018-12-06T20:42:28.116Z,13.70
2018-12-06T20:44:57.361Z,13.60
2018-12-06T20:47:26.557Z,13.60
2018-12-06T20:49:55.822Z,13.60
2018-12-06T20:52:25.776Z,13.60
2018-12-06T20:54:55.139Z,13.60
2018-12-06T20:57:24.308Z,13.60
2018-12-06T20:59:54.733Z,13.60
2018-12-06T21:02:23.888Z,13.60
2018-12-06T21:04:53.166Z,13.60
2018-12-06T21:07:22.361Z,13.70
2018-12-06T21:09:51.826Z,13.70
2018-12-06T21:12:21.064Z,13.70
2018-12-06T21:14:50.270Z,13.70
2018-12-06T21:17:19.517Z,13.70
2018-12-06T21:19:48.678Z,13.70
2018-12-06T21:22:17.954Z,13.70
2018-12-06T21:24:47.133Z,13.70
2018-12-06T21:27:16.268Z,13.80
2018-12-06T21:29:45.459Z,13.80
2018-12-06T21:32:14.913Z,13.80
2018-12-06T21:34:44.076Z,13.80
2018-12-06T21:37:13.454Z,13.80
2018-12-06T21:39:43.005Z,13.80
2018-12-06T21:42:12.751Z,13.80
2018-12-06T21:44:41.994Z,13.80
2018-12-06T21:47:15.675Z,13.80
2018-12-06T21:49:45.046Z,13.80
2018-12-06T21:52:14.242Z,13.80
2018-12-06T21:54:43.411Z,13.80
2018-12-06T21:57:12.720Z,13.80
2018-12-06T21:59:43.099Z,13.80
2018-12-06T22:02:24.926Z,13.80
2018-12-06T22:04:54.091Z,13.80
2018-12-06T22:07:23.271Z,13.80
2018-12-06T22:09:52.434Z,13.80
2018-12-06T22:12:21.600Z,13.80
2018-12-06T22:14:50.835Z,13.80
2018-12-06T22:17:21.235Z,13.80
2018-12-06T22:19:50.395Z,13.80
2018-12-06T22:22:19.583Z,13.80
2018-12-06T22:24:48.762Z,13.80
2018-12-06T22:27:18.001Z,13.80
2018-12-06T22:29:47.166Z,13.80
2018-12-06T22:32:16.348Z,13.80
2018-12-06T22:34:45.870Z,13.80
2018-12-06T22:37:15.046Z,13.80
2018-12-06T22:39:44.276Z,13.80
2018-12-06T22:42:13.485Z,13.80
2018-12-06T22:44:42.705Z,13.80
2018-12-06T22:47:12.276Z,13.80
2018-12-06T22:49:41.487Z,13.80
2018-12-06T22:52:11.266Z,13.80
2018-12-06T22:54:40.588Z,13.80
2018-12-06T22:57:09.773Z,13.80
2018-12-06T22:59:39.077Z,13.80
2018-12-06T23:02:08.473Z,13.80
2018-12-06T23:04:37.700Z,13.80
2018-12-06T23:07:07.225Z,13.80
2018-12-06T23:09:36.391Z,13.80
2018-12-06T23:12:05.860Z,13.80
2018-12-06T23:14:35.057Z,13.80
2018-12-06T23:17:05.699Z,13.80
2018-12-06T23:19:34.873Z,13.90
2018-12-06T23:22:04.385Z,13.90
2018-12-06T23:24:34.070Z,13.90
2018-12-06T23:27:04.773Z,13.80
2018-12-06T23:29:34.033Z,13.90
2018-12-06T23:32:03.305Z,13.80
2018-12-06T23:34:32.609Z,13.80
2018-12-06T23:37:01.928Z,13.90
2018-12-06T23:39:31.204Z,13.80
2018-12-06T23:42:00.452Z,13.80
2018-12-06T23:44:29.803Z,13.80
2018-12-06T23:46:59.016Z,13.80
2018-12-06T23:49:28.301Z,13.80
2018-12-06T23:51:59.413Z,13.80
2018-12-06T23:54:28.715Z,13.90
2018-12-06T23:56:57.911Z,13.90
2018-12-06T23:59:27.129Z,13.90
